createdAt,value
2023-11-18T00:02:03.249Z,5.20
2023-11-18T00:04:30.795Z,5.20
2023-11-18T00:06:59.925Z,5.20
2023-11-18T00:09:27.152Z,5.10
2023-11-18T00:11:54.883Z,5.10
2023-11-18T00:14:22.615Z,5.10
2023-11-18T00:16:50.413Z,5.10
2023-11-18T00:19:18.754Z,5.10
2023-11-18T00:21:45.958Z,5.00
2023-11-18T00:24:15.501Z,5.00
2023-11-18T00:26:43.290Z,5.10
2023-11-18T00:29:10.543Z,5.00
2023-11-18T00:31:37.885Z,5.00
2023-11-18T00:34:05.302Z,5.00
2023-11-18T00:36:32.572Z,5.10
2023-11-18T00:38:59.794Z,5.10
2023-11-18T00:41:27.599Z,5.10
2023-11-18T00:43:54.869Z,5.00
2023-11-18T00:46:23.325Z,5.10
2023-11-18T00:48:51.244Z,5.00
2023-11-18T00:51:19.723Z,5.00
2023-11-18T00:53:47.023Z,5.00
2023-11-18T00:56:19.011Z,5.10
2023-11-18T00:58:46.512Z,5.10
2023-11-18T01:01:13.851Z,5.10
2023-11-18T01:03:41.155Z,5.00
2023-11-18T01:06:08.442Z,5.00
2023-11-18T01:08:35.643Z,5.00
2023-11-18T01:11:05.296Z,5.00
2023-11-18T01:13:32.560Z,5.00
2023-11-18T01:16:00.616Z,5.00
2023-11-18T01:18:28.023Z,4.90
2023-11-18T01:20:55.467Z,5.00
2023-11-18T01:23:22.704Z,5.00
2023-11-18T01:25:52.219Z,5.00
2023-11-18T01:28:19.505Z,5.00
2023-11-18T01:30:47.079Z,5.00
2023-11-18T01:33:15.966Z,4.90
2023-11-18T01:35:44.694Z,4.90
2023-11-18T01:38:13.047Z,5.00
2023-11-18T01:40:40.317Z,5.00
2023-11-18T01:43:13.498Z,5.00
2023-11-18T01:45:43.642Z,5.00
2023-11-18T01:48:11.403Z,5.00
2023-11-18T01:50:41.184Z,5.00
2023-11-18T01:53:11.027Z,5.10
2023-11-18T01:55:39.723Z,5.00
2023-11-18T01:58:11.005Z,5.00
2023-11-18T02:00:43.340Z,5.00
2023-11-18T02:03:11.452Z,5.10
2023-11-18T02:05:39.594Z,5.10
2023-11-18T02:08:10.081Z,5.10
2023-11-18T02:10:49.351Z,5.10
2023-11-18T02:13:27.587Z,5.10
2023-11-18T02:15:58.304Z,5.00
2023-11-18T02:18:27.628Z,5.00
2023-11-18T02:20:59.533Z,5.00
2023-11-18T02:23:27.479Z,5.00
2023-11-18T02:25:59.074Z,5.00
2023-11-18T02:28:26.699Z,5.00
2023-11-18T02:30:58.485Z,5.20
2023-11-18T02:33:59.278Z,5.00
2023-11-18T02:36:38.197Z,5.00
2023-11-18T02:39:29.789Z,5.00
2023-11-18T02:41:58.715Z,5.10
2023-11-18T02:44:26.798Z,5.10
2023-11-18T02:46:54.150Z,5.10
2023-11-18T02:49:21.475Z,5.10
2023-11-18T02:51:48.977Z,5.10
2023-11-18T02:54:17.455Z,5.10
2023-11-18T02:56:44.690Z,5.10
2023-11-18T02:59:11.935Z,5.10
2023-11-18T03:01:40.440Z,5.10
2023-11-18T03:04:08.200Z,5.20
2023-11-18T03:06:36.755Z,5.20
2023-11-18T03:09:08.093Z,5.20
2023-11-18T03:11:35.681Z,5.20
2023-11-18T03:14:05.764Z,5.10
2023-11-18T03:16:33.310Z,5.20
2023-11-18T03:19:00.587Z,5.20
2023-11-18T03:21:27.896Z,5.10
2023-11-18T03:23:55.112Z,5.10
2023-11-18T03:26:22.393Z,5.20
2023-11-18T03:28:49.602Z,5.30
2023-11-18T03:31:17.136Z,5.20
2023-11-18T03:33:44.466Z,5.20
2023-11-18T03:36:13.308Z,5.10
2023-11-18T03:38:40.947Z,5.10
2023-11-18T03:41:09.671Z,5.10
2023-11-18T03:43:38.899Z,5.10
2023-11-18T03:46:06.489Z,5.10
2023-11-18T03:48:34.212Z,5.10
2023-11-18T03:51:02.426Z,5.10
2023-11-18T03:53:29.720Z,5.20
2023-11-18T03:55:57.090Z,5.10
2023-11-18T03:58:24.386Z,5.20
2023-11-18T04:00:51.674Z,5.20
2023-11-18T04:03:18.998Z,5.10
2023-11-18T04:05:46.268Z,5.10
2023-11-18T04:08:14.047Z,5.10
2023-11-18T04:10:41.400Z,5.10
2023-11-18T04:13:08.622Z,5.00
2023-11-18T04:15:36.438Z,5.20
2023-11-18T04:18:03.963Z,5.00
2023-11-18T04:20:31.254Z,5.00
2023-11-18T04:22:58.568Z,5.00
2023-11-18T04:25:26.430Z,5.00
2023-11-18T04:27:53.667Z,5.10
2023-11-18T04:30:21.177Z,5.10
2023-11-18T04:32:48.837Z,5.10
2023-11-18T04:35:16.466Z,5.10
2023-11-18T04:37:44.360Z,5.10
2023-11-18T04:40:12.682Z,5.00
2023-11-18T04:42:41.991Z,5.00
2023-11-18T04:45:10.575Z,5.10
2023-11-18T04:47:39.464Z,5.00
2023-11-18T04:50:07.476Z,5.00
2023-11-18T04:52:35.990Z,5.00
2023-11-18T04:55:06.545Z,5.10
2023-11-18T04:57:34.174Z,5.10
2023-11-18T05:00:11.159Z,5.10
2023-11-18T05:02:42.127Z,5.10
2023-11-18T05:05:10.244Z,5.10
2023-11-18T05:07:37.601Z,5.20
2023-11-18T05:10:05.268Z,5.20
2023-11-18T05:12:33.938Z,5.20
2023-11-18T05:15:01.701Z,5.20
2023-11-18T05:17:28.968Z,5.10
2023-11-18T05:19:56.356Z,5.20
2023-11-18T05:22:23.582Z,5.20
2023-11-18T05:24:50.780Z,5.20
2023-11-18T05:27:18.919Z,5.20
2023-11-18T05:29:49.623Z,5.10
2023-11-18T05:32:16.941Z,5.20
2023-11-18T05:34:44.463Z,5.20
2023-11-18T05:37:11.850Z,5.20
2023-11-18T05:39:44.895Z,5.20
2023-11-18T05:42:12.481Z,5.30
2023-11-18T05:44:40.623Z,5.20
2023-11-18T05:47:08.138Z,5.20
2023-11-18T05:49:35.813Z,5.20
2023-11-18T05:52:03.168Z,5.20
2023-11-18T05:54:30.352Z,5.20
2023-11-18T05:56:59.956Z,5.20
2023-11-18T05:59:27.852Z,5.20
2023-11-18T06:01:55.154Z,5.20
2023-11-18T06:04:22.509Z,5.20
2023-11-18T06:06:49.759Z,5.20
2023-11-18T06:09:21.876Z,5.20
2023-11-18T06:11:50.576Z,5.20
2023-11-18T06:14:18.143Z,5.20
2023-11-18T06:16:45.537Z,5.20
2023-11-18T06:19:12.911Z,5.30
2023-11-18T06:21:40.560Z,5.30
2023-11-18T06:24:08.432Z,5.30
2023-11-18T06:26:38.451Z,5.30
2023-11-18T06:29:07.113Z,5.30
2023-11-18T06:31:34.350Z,5.30
2023-11-18T06:34:03.638Z,5.30
2023-11-18T06:36:32.057Z,5.30
2023-11-18T06:39:00.126Z,5.30
2023-11-18T06:41:34.763Z,5.30
2023-11-18T06:44:10.033Z,5.30
2023-11-18T06:46:40.984Z,5.30
2023-11-18T06:49:08.798Z,5.30
2023-11-18T06:51:37.573Z,5.30
2023-11-18T06:54:14.577Z,5.30
2023-11-18T06:56:46.736Z,5.30
2023-11-18T06:59:15.889Z,5.30
2023-11-18T07:01:45.791Z,5.40
2023-11-18T07:04:15.183Z,5.40
2023-11-18T07:06:44.042Z,5.40
2023-11-18T07:09:15.366Z,5.50
2023-11-18T07:11:42.767Z,5.50
2023-11-18T07:14:14.480Z,5.50
2023-11-18T07:16:42.803Z,5.60
2023-11-18T07:19:15.975Z,5.60
2023-11-18T07:21:43.217Z,5.60
2023-11-18T07:24:10.511Z,5.60
2023-11-18T07:26:37.866Z,5.70
2023-11-18T07:29:05.238Z,5.70
2023-11-18T07:31:32.591Z,5.70
2023-11-18T07:33:59.960Z,5.70
2023-11-18T07:36:27.174Z,5.70
2023-11-18T07:38:54.391Z,5.70
2023-11-18T07:41:24.665Z,5.70
2023-11-18T07:43:53.875Z,5.70
2023-11-18T07:46:23.444Z,5.80
2023-11-18T07:48:52.893Z,5.80
2023-11-18T07:51:22.453Z,5.90
2023-11-18T07:53:50.234Z,5.90
2023-11-18T07:56:17.839Z,6.00
2023-11-18T07:58:48.261Z,5.90
2023-11-18T08:01:19.292Z,6.00
2023-11-18T08:03:46.698Z,6.10
2023-11-18T08:06:14.098Z,6.20
2023-11-18T08:08:41.869Z,6.10
2023-11-18T08:11:13.590Z,6.10
2023-11-18T08:13:41.424Z,6.20
2023-11-18T08:16:10.122Z,6.20
2023-11-18T08:18:38.286Z,6.20
2023-11-18T08:21:07.964Z,6.20
2023-11-18T08:23:35.536Z,6.30
2023-11-18T08:26:02.874Z,6.30
2023-11-18T08:28:30.196Z,6.40
2023-11-18T08:30:57.415Z,6.50
2023-11-18T08:33:27.481Z,6.60
2023-11-18T08:35:54.752Z,6.50
2023-11-18T08:38:22.043Z,6.60
2023-11-18T08:40:49.728Z,6.50
2023-11-18T08:43:17.673Z,6.50
2023-11-18T08:45:45.644Z,6.50
2023-11-18T08:48:13.046Z,6.40
2023-11-18T08:50:44.212Z,6.50
2023-11-18T08:53:13.189Z,6.60
2023-11-18T08:55:42.373Z,6.60
2023-11-18T08:58:29.131Z,6.70
2023-11-18T09:01:07.615Z,6.70
2023-11-18T09:03:37.587Z,6.90
2023-11-18T09:06:18.317Z,7.00
2023-11-18T09:08:54.394Z,7.00
2023-11-18T09:11:24.602Z,7.10
2023-11-18T09:13:54.797Z,7.00
2023-11-18T09:16:26.546Z,7.00
2023-11-18T09:18:54.221Z,7.00
2023-11-18T09:21:26.168Z,7.00
2023-11-18T09:23:53.541Z,7.00
2023-11-18T09:26:22.448Z,7.20
2023-11-18T09:28:51.249Z,7.20
2023-11-18T09:31:18.755Z,7.40
2023-11-18T09:33:53.085Z,7.50
2023-11-18T09:36:21.487Z,7.70
2023-11-18T09:38:49.637Z,7.80
2023-11-18T09:41:17.521Z,7.90
2023-11-18T09:43:46.771Z,7.90
2023-11-18T09:46:24.735Z,8.00
2023-11-18T09:49:16.424Z,8.10
2023-11-18T09:51:48.770Z,8.20
2023-11-18T09:54:33.911Z,8.20
2023-11-18T09:57:16.634Z,8.20
2023-11-18T10:00:00.320Z,7.90
2023-11-18T10:02:30.685Z,8.00
2023-11-18T10:05:01.504Z,8.00
2023-11-18T10:07:33.646Z,8.00
2023-11-18T10:10:03.189Z,8.10
2023-11-18T10:12:30.769Z,8.10
2023-11-18T10:14:59.614Z,8.10
2023-11-18T10:17:28.159Z,8.20
2023-11-18T10:19:57.734Z,8.10
2023-11-18T10:22:30.297Z,7.90
2023-11-18T10:24:58.991Z,7.80
2023-11-18T10:27:27.771Z,7.80
2023-11-18T10:29:59.592Z,8.00
2023-11-18T10:32:28.579Z,8.20
2023-11-18T10:34:59.376Z,8.30
2023-11-18T10:37:29.042Z,8.40
2023-11-18T10:39:56.325Z,8.40
2023-11-18T10:42:23.683Z,8.30
2023-11-18T10:44:59.228Z,8.30
2023-11-18T10:47:27.706Z,8.40
2023-11-18T10:49:57.242Z,8.60
2023-11-18T10:52:27.420Z,8.70
2023-11-18T10:54:57.743Z,8.60
2023-11-18T10:57:25.593Z,8.70
2023-11-18T11:00:20.662Z,8.60
2023-11-18T11:02:51.342Z,8.60
2023-11-18T11:05:40.950Z,8.60
2023-11-18T11:08:09.146Z,8.70
2023-11-18T11:10:37.058Z,8.60
2023-11-18T11:13:09.131Z,8.60
2023-11-18T11:15:51.751Z,8.80
2023-11-18T11:18:29.880Z,8.80
2023-11-18T11:21:17.506Z,8.60
2023-11-18T11:23:56.302Z,8.60
2023-11-18T11:26:58.016Z,8.70
2023-11-18T11:29:48.155Z,8.60
2023-11-18T11:32:31.472Z,8.70
2023-11-18T11:35:09.300Z,8.50
2023-11-18T11:37:41.514Z,8.40
2023-11-18T11:40:11.240Z,8.20
2023-11-18T11:42:43.697Z,7.90
2023-11-18T11:45:20.932Z,8.00
2023-11-18T11:47:51.926Z,8.10
2023-11-18T11:50:34.828Z,8.30
2023-11-18T11:53:18.036Z,8.30
2023-11-18T11:55:47.744Z,8.20
2023-11-18T11:58:34.684Z,8.30
2023-11-18T12:01:08.926Z,8.40
2023-11-18T12:03:46.291Z,8.30
2023-11-18T12:06:17.234Z,8.20
2023-11-18T12:08:45.425Z,8.20
2023-11-18T12:11:13.849Z,8.40
2023-11-18T12:13:41.544Z,8.30
2023-11-18T12:16:11.542Z,8.30
2023-11-18T12:18:38.887Z,8.50
2023-11-18T12:21:06.402Z,8.50
2023-11-18T12:23:36.016Z,8.50
2023-11-18T12:26:26.030Z,8.50
2023-11-18T12:28:54.825Z,8.50
2023-11-18T12:31:41.061Z,8.60
2023-11-18T12:34:10.958Z,8.70
2023-11-18T12:37:31.545Z,8.80
2023-11-18T12:40:32.802Z,8.70
2023-11-18T12:43:07.619Z,8.90
2023-11-18T12:45:52.056Z,9.00
2023-11-18T12:48:27.875Z,9.00
2023-11-18T12:50:56.631Z,9.00
2023-11-18T12:53:27.702Z,8.80
2023-11-18T12:55:55.537Z,8.80
2023-11-18T12:58:24.359Z,8.80
2023-11-18T13:00:51.694Z,8.70
2023-11-18T13:03:21.508Z,8.60
2023-11-18T13:05:50.861Z,8.70
2023-11-18T13:08:18.387Z,8.80
2023-11-18T13:10:45.914Z,8.70
2023-11-18T13:13:15.818Z,8.60
2023-11-18T13:15:43.119Z,8.50
2023-11-18T13:18:11.641Z,8.50
2023-11-18T13:20:40.396Z,8.70
2023-11-18T13:23:10.666Z,8.60
2023-11-18T13:25:40.196Z,8.40
2023-11-18T13:28:11.195Z,8.50
2023-11-18T13:30:40.936Z,8.40
2023-11-18T13:33:09.471Z,8.40
2023-11-18T13:35:37.714Z,8.40
2023-11-18T13:38:06.428Z,8.30
2023-11-18T13:40:47.996Z,8.30
2023-11-18T13:43:15.496Z,8.30
2023-11-18T13:45:43.615Z,8.40
2023-11-18T13:48:13.955Z,8.50
2023-11-18T13:50:44.631Z,8.50
2023-11-18T13:53:12.364Z,8.50
2023-11-18T13:55:39.954Z,8.40
2023-11-18T13:58:07.880Z,8.40
2023-11-18T14:00:35.218Z,8.40
2023-11-18T14:03:03.891Z,8.50
2023-11-18T14:05:34.489Z,8.50
2023-11-18T14:08:08.487Z,8.50
2023-11-18T14:10:39.448Z,8.50
2023-11-18T14:13:07.375Z,8.60
2023-11-18T14:15:37.482Z,8.60
2023-11-18T14:18:05.638Z,8.70
2023-11-18T14:20:33.046Z,8.70
2023-11-18T14:23:00.406Z,8.70
2023-11-18T14:25:28.360Z,8.70
2023-11-18T14:27:55.658Z,8.80
2023-11-18T14:30:25.498Z,8.70
2023-11-18T14:32:53.416Z,8.70
2023-11-18T14:35:21.762Z,8.80
2023-11-18T14:37:49.368Z,8.70
2023-11-18T14:40:17.257Z,8.70
2023-11-18T14:42:51.584Z,8.60
2023-11-18T14:45:19.556Z,8.50
2023-11-18T14:47:48.754Z,8.40
2023-11-18T14:50:20.489Z,8.30
2023-11-18T14:53:00.015Z,8.30
2023-11-18T14:55:31.091Z,8.10
2023-11-18T14:57:58.333Z,8.10
2023-11-18T15:00:27.908Z,8.00
2023-11-18T15:02:58.240Z,7.90
2023-11-18T15:05:28.361Z,7.90
2023-11-18T15:07:57.396Z,7.80
2023-11-18T15:10:26.921Z,7.80
2023-11-18T15:12:57.949Z,7.80
2023-11-18T15:15:32.932Z,7.80
2023-11-18T15:18:04.798Z,7.80
2023-11-18T15:20:32.512Z,7.70
2023-11-18T15:22:59.900Z,7.80
2023-11-18T15:25:28.088Z,7.80
2023-11-18T15:27:57.135Z,7.70
2023-11-18T15:30:25.788Z,7.70
2023-11-18T15:32:53.129Z,7.70
2023-11-18T15:35:22.238Z,7.70
2023-11-18T15:37:49.877Z,7.70
2023-11-18T15:40:21.086Z,7.70
2023-11-18T15:42:52.357Z,7.60
2023-11-18T15:45:21.549Z,7.60
2023-11-18T15:47:49.668Z,7.60
2023-11-18T15:50:17.998Z,7.60
2023-11-18T15:52:49.663Z,7.50
2023-11-18T15:55:18.697Z,7.50
2023-11-18T15:57:53.860Z,7.40
2023-11-18T16:00:23.066Z,7.40
2023-11-18T16:02:52.487Z,7.30
2023-11-18T16:05:22.335Z,7.20
2023-11-18T16:07:52.127Z,7.20
2023-11-18T16:10:22.352Z,7.20
2023-11-18T16:12:55.401Z,7.20
2023-11-18T16:15:24.140Z,7.20
2023-11-18T16:17:52.295Z,7.20
2023-11-18T16:20:24.348Z,7.20
2023-11-18T16:22:52.805Z,7.20
2023-11-18T16:25:21.922Z,7.20
2023-11-18T16:27:50.512Z,7.30
2023-11-18T16:30:19.514Z,7.30
2023-11-18T16:32:50.230Z,7.30
2023-11-18T16:35:21.781Z,7.20
2023-11-18T16:37:50.236Z,7.30
2023-11-18T16:40:20.943Z,7.20
2023-11-18T16:42:56.318Z,7.20
2023-11-18T16:45:25.466Z,7.20
2023-11-18T16:47:54.786Z,7.10
2023-11-18T16:50:24.830Z,7.10
2023-11-18T16:52:52.991Z,7.10
2023-11-18T16:55:21.966Z,7.10
2023-11-18T16:57:52.807Z,7.10
2023-11-18T17:00:27.002Z,7.10
2023-11-18T17:02:57.590Z,7.10
2023-11-18T17:05:28.898Z,7.10
2023-11-18T17:07:56.905Z,7.10
2023-11-18T17:10:24.571Z,7.00
2023-11-18T17:12:52.642Z,7.00
2023-11-18T17:15:20.537Z,7.00
2023-11-18T17:17:54.252Z,6.90
2023-11-18T17:20:21.692Z,6.90
2023-11-18T17:22:48.940Z,6.90
2023-11-18T17:25:20.036Z,6.80
2023-11-18T17:27:48.292Z,6.80
2023-11-18T17:30:18.927Z,6.80
2023-11-18T17:32:48.172Z,6.70
2023-11-18T17:35:17.272Z,6.70
2023-11-18T17:37:47.581Z,6.70
2023-11-18T17:40:16.542Z,6.70
2023-11-18T17:42:45.074Z,6.70
2023-11-18T17:45:14.348Z,6.70
2023-11-18T17:47:46.147Z,6.70
2023-11-18T17:50:16.357Z,6.80
2023-11-18T17:52:45.473Z,6.80
2023-11-18T17:55:18.999Z,6.80
2023-11-18T17:57:47.410Z,6.90
2023-11-18T18:00:21.061Z,6.90
2023-11-18T18:02:48.785Z,7.00
2023-11-18T18:05:16.979Z,7.00
2023-11-18T18:07:44.389Z,7.10
2023-11-18T18:10:13.157Z,7.00
2023-11-18T18:12:43.011Z,7.00
2023-11-18T18:15:12.280Z,7.00
2023-11-18T18:17:39.698Z,6.90
2023-11-18T18:20:10.675Z,6.90
2023-11-18T18:22:39.658Z,6.90
2023-11-18T18:25:07.914Z,6.80
2023-11-18T18:27:35.324Z,6.70
2023-11-18T18:30:03.534Z,6.70
2023-11-18T18:32:31.125Z,6.70
2023-11-18T18:34:59.331Z,6.70
2023-11-18T18:37:27.852Z,6.70
2023-11-18T18:39:56.459Z,6.70
2023-11-18T18:42:25.308Z,6.70
2023-11-18T18:44:55.277Z,6.70
2023-11-18T18:47:22.912Z,6.70
2023-11-18T18:49:50.568Z,6.60
2023-11-18T18:52:17.793Z,6.60
2023-11-18T18:54:46.134Z,6.60
2023-11-18T18:57:13.546Z,6.60
2023-11-18T18:59:42.251Z,6.60
2023-11-18T19:02:09.688Z,6.70
2023-11-18T19:04:38.190Z,6.60
2023-11-18T19:07:05.456Z,6.60
2023-11-18T19:09:32.688Z,6.50
2023-11-18T19:11:59.874Z,6.50
2023-11-18T19:14:27.126Z,6.40
2023-11-18T19:16:54.645Z,6.40
2023-11-18T19:19:22.722Z,6.30
2023-11-18T19:21:52.102Z,6.30
2023-11-18T19:24:20.587Z,6.30
2023-11-18T19:26:49.109Z,6.20
2023-11-18T19:29:16.613Z,6.20
2023-11-18T19:31:43.928Z,6.20
2023-11-18T19:34:11.430Z,6.20
2023-11-18T19:36:38.854Z,6.20
2023-11-18T19:39:08.739Z,6.10
2023-11-18T19:41:36.197Z,6.10
2023-11-18T19:44:05.265Z,6.20
2023-11-18T19:46:32.570Z,6.20
2023-11-18T19:49:01.357Z,6.10
2023-11-18T19:51:28.623Z,6.10
2023-11-18T19:53:55.865Z,6.00
2023-11-18T19:56:24.199Z,6.00
2023-11-18T19:58:51.594Z,5.90
2023-11-18T20:01:19.691Z,5.80
2023-11-18T20:03:48.033Z,5.80
2023-11-18T20:06:15.483Z,5.70
2023-11-18T20:08:42.818Z,5.70
2023-11-18T20:11:10.655Z,5.70
2023-11-18T20:13:38.438Z,5.70
2023-11-18T20:16:08.247Z,5.60
2023-11-18T20:18:35.790Z,5.50
2023-11-18T20:21:03.315Z,5.50
2023-11-18T20:23:30.656Z,5.50
2023-11-18T20:25:57.998Z,5.40
2023-11-18T20:28:25.256Z,5.40
2023-11-18T20:30:54.603Z,5.40
2023-11-18T20:33:22.693Z,5.30
2023-11-18T20:35:50.021Z,5.20
2023-11-18T20:38:17.357Z,5.30
2023-11-18T20:40:44.760Z,5.20
2023-11-18T20:43:11.955Z,5.20
2023-11-18T20:45:41.299Z,5.10
2023-11-18T20:48:09.418Z,5.10
2023-11-18T20:50:37.087Z,5.10
2023-11-18T20:53:05.309Z,5.10
2023-11-18T20:55:33.075Z,5.10
2023-11-18T20:58:02.874Z,5.00
2023-11-18T21:00:31.279Z,5.00
2023-11-18T21:02:58.661Z,4.90
2023-11-18T21:05:26.252Z,4.90
2023-11-18T21:07:53.676Z,4.90
2023-11-18T21:10:20.887Z,5.00
2023-11-18T21:12:49.124Z,5.00
2023-11-18T21:15:16.416Z,4.90
2023-11-18T21:17:43.891Z,4.90
2023-11-18T21:20:13.769Z,4.90
2023-11-18T21:22:42.294Z,4.90
2023-11-18T21:25:12.564Z,4.90
2023-11-18T21:27:39.952Z,4.80
2023-11-18T21:30:11.229Z,4.80
2023-11-18T21:32:49.045Z,4.80
2023-11-18T21:35:21.826Z,4.80
2023-11-18T21:37:51.146Z,4.80
2023-11-18T21:40:20.385Z,4.90
2023-11-18T21:42:47.620Z,4.90
2023-11-18T21:45:15.052Z,4.90
2023-11-18T21:47:45.662Z,4.90
2023-11-18T21:50:16.034Z,5.00
2023-11-18T21:52:45.230Z,4.90
2023-11-18T21:55:14.083Z,4.90
2023-11-18T21:57:41.869Z,4.90
2023-11-18T22:00:14.148Z,4.90
2023-11-18T22:02:44.287Z,4.90
2023-11-18T22:05:17.725Z,4.90
2023-11-18T22:07:46.371Z,4.90
2023-11-18T22:10:22.299Z,4.90
2023-11-18T22:12:52.755Z,4.90
2023-11-18T22:15:22.995Z,4.90
2023-11-18T22:17:52.550Z,5.00
2023-11-18T22:20:25.458Z,5.00
2023-11-18T22:22:52.804Z,5.00
2023-11-18T22:25:20.556Z,5.00
2023-11-18T22:27:48.475Z,5.00
2023-11-18T22:30:16.991Z,5.10
2023-11-18T22:32:44.689Z,5.10
2023-11-18T22:35:12.086Z,5.20
2023-11-18T22:37:39.446Z,5.20
2023-11-18T22:40:11.870Z,5.20
2023-11-18T22:42:40.771Z,5.30
2023-11-18T22:45:17.052Z,5.30
2023-11-18T22:47:46.161Z,5.40
2023-11-18T22:50:14.022Z,5.40
2023-11-18T22:52:41.633Z,5.40
2023-11-18T22:55:16.534Z,5.40
2023-11-18T22:57:45.765Z,5.40
2023-11-18T23:00:32.591Z,5.40
2023-11-18T23:03:00.222Z,5.40
2023-11-18T23:05:27.650Z,5.40
2023-11-18T23:07:57.551Z,5.40
2023-11-18T23:10:26.090Z,5.40
2023-11-18T23:12:55.692Z,5.40
2023-11-18T23:15:23.152Z,5.40
2023-11-18T23:17:50.890Z,5.40
2023-11-18T23:20:19.137Z,5.40
2023-11-18T23:22:46.477Z,5.40
2023-11-18T23:25:13.948Z,5.40
2023-11-18T23:27:42.194Z,5.40
2023-11-18T23:30:13.207Z,5.40
2023-11-18T23:32:40.888Z,5.40
2023-11-18T23:35:10.400Z,5.40
2023-11-18T23:37:37.650Z,5.40
2023-11-18T23:40:10.925Z,5.40
2023-11-18T23:42:43.470Z,5.40
2023-11-18T23:45:14.903Z,5.40
2023-11-18T23:47:43.181Z,5.40
2023-11-18T23:50:12.254Z,5.40
2023-11-18T23:52:39.492Z,5.50
2023-11-18T23:55:13.528Z,5.50
2023-11-18T23:57:41.811Z,5.50
